sensor_id;sensor_type;location;lat;lon;timestamp;temperature;humidity
25438;DHT22;13364;49.084;9.978;2024-01-07T06:31:45;1.20;100.00
25438;DHT22;13364;49.084;9.978;2024-01-07T06:34:12;1.10;100.00
25438;DHT22;13364;49.084;9.978;2024-01-07T06:36:40;1.20;100.00
25438;DHT22;13364;49.084;9.978;2024-01-07T06:39:08;1.20;100.00
25438;DHT22;13364;49.084;9.978;2024-01-07T06:41:35;1.10;100.00
25438;DHT22;13364;49.084;9.978;2024-01-07T06:44:05;1.20;100.00
25438;DHT22;13364;49.084;9.978;2024-01-07T06:46:32;1.20;100.00
25438;DHT22;13364;49.084;9.978;2024-01-07T06:49:00;1.20;100.00
25438;DHT22;13364;49.084;9.978;2024-01-07T06:51:28;1.10;100.00
25438;DHT22;13364;49.084;9.978;2024-01-07T06:53:55;1.20;100.00
25438;DHT22;13364;49.084;9.978;2024-01-07T06:56:22;1.10;100.00
25438;DHT22;13364;49.084;9.978;2024-01-07T06:58:48;1.10;100.00
25438;DHT22;13364;49.084;9.978;2024-01-07T07:01:21;1.00;100.00
25438;DHT22;13364;49.084;9.978;2024-01-07T07:03:51;1.00;100.00
25438;DHT22;13364;49.084;9.978;2024-01-07T07:06:18;1.00;100.00
25438;DHT22;13364;49.084;9.978;2024-01-07T07:08:45;1.00;100.00
25438;DHT22;13364;49.084;9.978;2024-01-07T07:11:12;1.00;100.00
25438;DHT22;13364;49.084;9.978;2024-01-07T07:13:39;0.90;100.00
25438;DHT22;13364;49.084;9.978;2024-01-07T07:16:06;0.90;100.00
25438;DHT22;13364;49.084;9.978;2024-01-07T07:18:33;0.90;100.00
25438;DHT22;13364;49.084;9.978;2024-01-07T07:21:00;0.90;100.00
25438;DHT22;13364;49.084;9.978;2024-01-07T07:23:27;0.90;100.00
25438;DHT22;13364;49.084;9.978;2024-01-07T07:25:54;0.80;100.00
25438;DHT22;13364;49.084;9.978;2024-01-07T07:28:21;0.90;100.00
25438;DHT22;13364;49.084;9.978;2024-01-07T07:30:48;0.90;100.00
25438;DHT22;13364;49.084;9.978;2024-01-07T07:33:18;0.90;100.00
25438;DHT22;13364;49.084;9.978;2024-01-07T07:35:45;0.80;100.00
25438;DHT22;13364;49.084;9.978;2024-01-07T07:38:12;0.80;100.00
25438;DHT22;13364;49.084;9.978;2024-01-07T07:40:39;0.80;100.00
25438;DHT22;13364;49.084;9.978;2024-01-07T07:43:06;0.80;100.00
25438;DHT22;13364;49.084;9.978;2024-01-07T07:45:33;0.70;100.00
25438;DHT22;13364;49.084;9.978;2024-01-07T07:48:01;0.70;100.00
25438;DHT22;13364;49.084;9.978;2024-01-07T07:50:28;0.70;100.00
25438;DHT22;13364;49.084;9.978;2024-01-07T07:52:55;0.60;100.00
25438;DHT22;13364;49.084;9.978;2024-01-07T07:55:22;0.60;100.00
25438;DHT22;13364;49.084;9.978;2024-01-07T07:57:49;0.60;100.00
25438;DHT22;13364;49.084;9.978;2024-01-07T08:00:18;0.60;100.00
25438;DHT22;13364;49.084;9.978;2024-01-07T08:02:45;0.60;100.00
25438;DHT22;13364;49.084;9.978;2024-01-07T08:05:12;0.50;100.00
25438;DHT22;13364;49.084;9.978;2024-01-07T08:07:40;0.50;100.00
25438;DHT22;13364;49.084;9.978;2024-01-07T08:10:07;0.50;100.00
25438;DHT22;13364;49.084;9.978;2024-01-07T08:12:34;0.40;100.00
25438;DHT22;13364;49.084;9.978;2024-01-07T08:15:01;0.40;100.00
25438;DHT22;13364;49.084;9.978;2024-01-07T08:17:29;0.40;100.00
25438;DHT22;13364;49.084;9.978;2024-01-07T08:19:56;0.30;100.00
25438;DHT22;13364;49.084;9.978;2024-01-07T08:22:23;0.30;100.00
25438;DHT22;13364;49.084;9.978;2024-01-07T08:24:50;0.30;100.00
25438;DHT22;13364;49.084;9.978;2024-01-07T08:27:17;0.30;100.00
25438;DHT22;13364;49.084;9.978;2024-01-07T08:29:44;0.30;100.00
25438;DHT22;13364;49.084;9.978;2024-01-07T08:32:11;0.20;100.00
25438;DHT22;13364;49.084;9.978;2024-01-07T08:34:39;0.20;100.00
25438;DHT22;13364;49.084;9.978;2024-01-07T08:37:09;0.20;100.00
25438;DHT22;13364;49.084;9.978;2024-01-07T08:39:36;0.20;100.00
25438;DHT22;13364;49.084;9.978;2024-01-07T08:42:03;0.20;100.00
25438;DHT22;13364;49.084;9.978;2024-01-07T08:44:31;0.20;100.00
25438;DHT22;13364;49.084;9.978;2024-01-07T08:46:58;0.20;100.00
25438;DHT22;13364;49.084;9.978;2024-01-07T08:49:31;0.10;100.00
25438;DHT22;13364;49.084;9.978;2024-01-07T08:52:00;0.20;100.00
25438;DHT22;13364;49.084;9.978;2024-01-07T08:54:27;0.20;100.00
25438;DHT22;13364;49.084;9.978;2024-01-07T08:56:54;0.20;100.00
25438;DHT22;13364;49.084;9.978;2024-01-07T08:59:20;0.20;100.00
25438;DHT22;13364;49.084;9.978;2024-01-07T09:01:47;0.20;100.00
25438;DHT22;13364;49.084;9.978;2024-01-07T09:04:14;0.20;100.00
25438;DHT22;13364;49.084;9.978;2024-01-07T09:06:43;0.20;100.00
25438;DHT22;13364;49.084;9.978;2024-01-07T09:09:10;0.20;100.00
25438;DHT22;13364;49.084;9.978;2024-01-07T09:11:37;0.20;100.00
25438;DHT22;13364;49.084;9.978;2024-01-07T09:14:04;0.30;100.00
25438;DHT22;13364;49.084;9.978;2024-01-07T09:16:31;0.30;100.00
25438;DHT22;13364;49.084;9.978;2024-01-07T09:18:57;0.30;100.00
25438;DHT22;13364;49.084;9.978;2024-01-07T09:21:24;0.30;100.00
25438;DHT22;13364;49.084;9.978;2024-01-07T09:23:52;0.40;100.00
25438;DHT22;13364;49.084;9.978;2024-01-07T09:26:19;0.40;100.00
25438;DHT22;13364;49.084;9.978;2024-01-07T09:28:45;0.40;100.00
25438;DHT22;13364;49.084;9.978;2024-01-07T09:31:12;0.30;100.00
25438;DHT22;13364;49.084;9.978;2024-01-07T09:33:39;0.30;100.00
25438;DHT22;13364;49.084;9.978;2024-01-07T09:36:07;0.30;100.00
25438;DHT22;13364;49.084;9.978;2024-01-07T09:38:51;0.30;100.00
25438;DHT22;13364;49.084;9.978;2024-01-07T09:41:20;0.20;100.00
25438;DHT22;13364;49.084;9.978;2024-01-07T09:43:47;0.20;100.00
25438;DHT22;13364;49.084;9.978;2024-01-07T09:46:14;0.20;100.00
25438;DHT22;13364;49.084;9.978;2024-01-07T09:48:40;0.10;100.00
25438;DHT22;13364;49.084;9.978;2024-01-07T09:51:09;0.10;100.00
25438;DHT22;13364;49.084;9.978;2024-01-07T09:53:39;0.10;100.00
25438;DHT22;13364;49.084;9.978;2024-01-07T09:56:17;0.00;100.00
25438;DHT22;13364;49.084;9.978;2024-01-07T09:58:46;0.00;100.00
25438;DHT22;13364;49.084;9.978;2024-01-07T10:01:19;0.00;100.00
25438;DHT22;13364;49.084;9.978;2024-01-07T10:03:46;0.00;100.00
25438;DHT22;13364;49.084;9.978;2024-01-07T10:06:18;0.00;100.00
25438;DHT22;13364;49.084;9.978;2024-01-07T10:08:44;0.00;100.00
25438;DHT22;13364;49.084;9.978;2024-01-07T10:11:14;0.10;100.00
25438;DHT22;13364;49.084;9.978;2024-01-07T10:13:40;0.10;100.00
25438;DHT22;13364;49.084;9.978;2024-01-07T10:16:07;0.00;100.00
25438;DHT22;13364;49.084;9.978;2024-01-07T10:18:36;0.00;100.00
25438;DHT22;13364;49.084;9.978;2024-01-07T10:21:03;0.00;100.00
25438;DHT22;13364;49.084;9.978;2024-01-07T10:23:30;0.00;100.00
25438;DHT22;13364;49.084;9.978;2024-01-07T10:26:00;-0.10;100.00
25438;DHT22;13364;49.084;9.978;2024-01-07T10:28:41;-0.10;100.00
25438;DHT22;13364;49.084;9.978;2024-01-07T10:31:07;-0.10;100.00
25438;DHT22;13364;49.084;9.978;2024-01-07T10:33:34;-0.10;100.00
25438;DHT22;13364;49.084;9.978;2024-01-07T10:36:05;-0.20;100.00
25438;DHT22;13364;49.084;9.978;2024-01-07T10:38:32;-0.20;100.00
25438;DHT22;13364;49.084;9.978;2024-01-07T10:41:00;-0.20;100.00
25438;DHT22;13364;49.084;9.978;2024-01-07T10:43:31;-0.20;100.00
25438;DHT22;13364;49.084;9.978;2024-01-07T10:46:01;-0.20;100.00
25438;DHT22;13364;49.084;9.978;2024-01-07T10:48:31;-0.30;100.00
25438;DHT22;13364;49.084;9.978;2024-01-07T10:51:03;-0.30;100.00
25438;DHT22;13364;49.084;9.978;2024-01-07T10:53:34;-0.30;100.00
25438;DHT22;13364;49.084;9.978;2024-01-07T10:56:04;-0.30;100.00
25438;DHT22;13364;49.084;9.978;2024-01-07T10:58:36;-0.30;100.00
25438;DHT22;13364;49.084;9.978;2024-01-07T11:01:04;-0.40;100.00
25438;DHT22;13364;49.084;9.978;2024-01-07T11:03:45;-0.40;100.00
25438;DHT22;13364;49.084;9.978;2024-01-07T11:06:27;-0.30;100.00
25438;DHT22;13364;49.084;9.978;2024-01-07T11:09:03;-0.40;100.00
25438;DHT22;13364;49.084;9.978;2024-01-07T11:11:38;-0.40;100.00
25438;DHT22;13364;49.084;9.978;2024-01-07T11:17:04;-0.50;100.00
25438;DHT22;13364;49.084;9.978;2024-01-07T11:19:31;-0.60;100.00
25438;DHT22;13364;49.084;9.978;2024-01-07T11:24:57;-0.60;100.00
25438;DHT22;13364;49.084;9.978;2024-01-07T11:27:25;-0.60;100.00
25438;DHT22;13364;49.084;9.978;2024-01-07T11:30:18;-0.60;100.00
25438;DHT22;13364;49.084;9.978;2024-01-07T11:32:45;-0.60;100.00
25438;DHT22;13364;49.084;9.978;2024-01-07T11:35:39;-0.60;100.00
25438;DHT22;13364;49.084;9.978;2024-01-07T11:38:08;-0.70;100.00
25438;DHT22;13364;49.084;9.978;2024-01-07T11:40:35;-0.70;100.00
25438;DHT22;13364;49.084;9.978;2024-01-07T11:43:03;-0.70;100.00
25438;DHT22;13364;49.084;9.978;2024-01-07T11:45:31;-0.70;100.00
25438;DHT22;13364;49.084;9.978;2024-01-07T11:47:58;-0.70;100.00
25438;DHT22;13364;49.084;9.978;2024-01-07T11:50:25;-0.80;100.00
25438;DHT22;13364;49.084;9.978;2024-01-07T11:52:54;-0.80;100.00
25438;DHT22;13364;49.084;9.978;2024-01-07T11:55:21;-0.90;100.00
25438;DHT22;13364;49.084;9.978;2024-01-07T11:57:49;-0.90;100.00
25438;DHT22;13364;49.084;9.978;2024-01-07T12:00:16;-0.90;100.00
25438;DHT22;13364;49.084;9.978;2024-01-07T12:02:43;-0.90;100.00
25438;DHT22;13364;49.084;9.978;2024-01-07T12:05:10;-0.90;100.00
25438;DHT22;13364;49.084;9.978;2024-01-07T12:07:37;-1.00;100.00
25438;DHT22;13364;49.084;9.978;2024-01-07T12:10:07;-1.00;100.00
25438;DHT22;13364;49.084;9.978;2024-01-07T12:12:41;-1.10;100.00
25438;DHT22;13364;49.084;9.978;2024-01-07T12:15:09;-1.10;100.00
25438;DHT22;13364;49.084;9.978;2024-01-07T12:17:40;-1.10;100.00
25438;DHT22;13364;49.084;9.978;2024-01-07T12:20:08;-1.10;100.00
25438;DHT22;13364;49.084;9.978;2024-01-07T12:22:38;-1.10;100.00
25438;DHT22;13364;49.084;9.978;2024-01-07T12:25:06;-1.10;100.00
25438;DHT22;13364;49.084;9.978;2024-01-07T12:27:33;-1.10;100.00
25438;DHT22;13364;49.084;9.978;2024-01-07T12:30:02;-1.10;100.00
25438;DHT22;13364;49.084;9.978;2024-01-07T12:32:32;-1.20;100.00
25438;DHT22;13364;49.084;9.978;2024-01-07T12:34:59;-1.20;100.00
25438;DHT22;13364;49.084;9.978;2024-01-07T12:37:27;-1.20;100.00
25438;DHT22;13364;49.084;9.978;2024-01-07T12:39:54;-1.20;100.00
25438;DHT22;13364;49.084;9.978;2024-01-07T12:42:21;-1.20;100.00
25438;DHT22;13364;49.084;9.978;2024-01-07T12:44:50;-1.20;100.00
25438;DHT22;13364;49.084;9.978;2024-01-07T12:47:17;-1.30;100.00
25438;DHT22;13364;49.084;9.978;2024-01-07T12:49:43;-1.30;100.00
25438;DHT22;13364;49.084;9.978;2024-01-07T12:52:10;-1.30;100.00
25438;DHT22;13364;49.084;9.978;2024-01-07T12:54:38;-1.30;100.00
25438;DHT22;13364;49.084;9.978;2024-01-07T12:57:06;-1.30;100.00
25438;DHT22;13364;49.084;9.978;2024-01-07T12:59:32;-1.30;100.00
25438;DHT22;13364;49.084;9.978;2024-01-07T13:01:59;-1.30;100.00
25438;DHT22;13364;49.084;9.978;2024-01-07T13:04:26;-1.30;100.00
25438;DHT22;13364;49.084;9.978;2024-01-07T13:06:54;-1.30;100.00
25438;DHT22;13364;49.084;9.978;2024-01-07T13:09:21;-1.30;100.00
25438;DHT22;13364;49.084;9.978;2024-01-07T13:11:48;-1.30;100.00
25438;DHT22;13364;49.084;9.978;2024-01-07T13:14:15;-1.40;100.00
25438;DHT22;13364;49.084;9.978;2024-01-07T13:16:42;-1.40;100.00
25438;DHT22;13364;49.084;9.978;2024-01-07T13:19:08;-1.40;100.00
25438;DHT22;13364;49.084;9.978;2024-01-07T13:21:38;-1.40;100.00
25438;DHT22;13364;49.084;9.978;2024-01-07T13:24:08;-1.40;100.00
25438;DHT22;13364;49.084;9.978;2024-01-07T13:26:35;-1.50;100.00
25438;DHT22;13364;49.084;9.978;2024-01-07T13:29:02;-1.40;100.00
25438;DHT22;13364;49.084;9.978;2024-01-07T13:31:30;-1.40;100.00
25438;DHT22;13364;49.084;9.978;2024-01-07T13:33:57;-1.30;100.00
25438;DHT22;13364;49.084;9.978;2024-01-07T13:36:24;-1.40;100.00
25438;DHT22;13364;49.084;9.978;2024-01-07T13:38:51;-1.40;100.00
25438;DHT22;13364;49.084;9.978;2024-01-07T13:41:18;-1.40;100.00
25438;DHT22;13364;49.084;9.978;2024-01-07T13:43:44;-1.40;100.00
25438;DHT22;13364;49.084;9.978;2024-01-07T13:46:11;-1.40;100.00
25438;DHT22;13364;49.084;9.978;2024-01-07T13:48:38;-1.40;100.00
25438;DHT22;13364;49.084;9.978;2024-01-07T13:51:09;-1.40;100.00
25438;DHT22;13364;49.084;9.978;2024-01-07T13:53:36;-1.50;100.00
25438;DHT22;13364;49.084;9.978;2024-01-07T13:56:03;-1.50;100.00
25438;DHT22;13364;49.084;9.978;2024-01-07T13:58:30;-1.50;100.00
25438;DHT22;13364;49.084;9.978;2024-01-07T14:00:57;-1.60;100.00
25438;DHT22;13364;49.084;9.978;2024-01-07T14:03:23;-1.60;100.00
25438;DHT22;13364;49.084;9.978;2024-01-07T14:05:51;-1.60;100.00
25438;DHT22;13364;49.084;9.978;2024-01-07T14:08:18;-1.60;100.00
25438;DHT22;13364;49.084;9.978;2024-01-07T14:10:45;-1.60;100.00
25438;DHT22;13364;49.084;9.978;2024-01-07T14:13:11;-1.60;100.00
25438;DHT22;13364;49.084;9.978;2024-01-07T14:15:38;-1.60;100.00
25438;DHT22;13364;49.084;9.978;2024-01-07T14:18:05;-1.60;100.00
25438;DHT22;13364;49.084;9.978;2024-01-07T14:20:33;-1.60;100.00
25438;DHT22;13364;49.084;9.978;2024-01-07T14:22:59;-1.60;100.00
25438;DHT22;13364;49.084;9.978;2024-01-07T14:25:26;-1.60;100.00
25438;DHT22;13364;49.084;9.978;2024-01-07T14:27:53;-1.60;100.00
25438;DHT22;13364;49.084;9.978;2024-01-07T14:30:20;-1.60;100.00
25438;DHT22;13364;49.084;9.978;2024-01-07T14:32:47;-1.60;100.00
25438;DHT22;13364;49.084;9.978;2024-01-07T14:35:14;-1.70;100.00
25438;DHT22;13364;49.084;9.978;2024-01-07T14:37:41;-1.70;100.00
25438;DHT22;13364;49.084;9.978;2024-01-07T14:40:08;-1.70;100.00
25438;DHT22;13364;49.084;9.978;2024-01-07T14:42:35;-1.80;100.00
25438;DHT22;13364;49.084;9.978;2024-01-07T14:45:02;-1.80;100.00
25438;DHT22;13364;49.084;9.978;2024-01-07T14:47:31;-1.80;100.00
25438;DHT22;13364;49.084;9.978;2024-01-07T14:49:57;-1.80;100.00
25438;DHT22;13364;49.084;9.978;2024-01-07T14:52:24;-1.80;100.00
25438;DHT22;13364;49.084;9.978;2024-01-07T14:54:52;-1.80;100.00
25438;DHT22;13364;49.084;9.978;2024-01-07T14:57:19;-1.80;100.00
25438;DHT22;13364;49.084;9.978;2024-01-07T14:59:45;-1.90;100.00
25438;DHT22;13364;49.084;9.978;2024-01-07T15:02:12;-1.90;100.00
25438;DHT22;13364;49.084;9.978;2024-01-07T15:04:40;-1.90;100.00
25438;DHT22;13364;49.084;9.978;2024-01-07T15:07:07;-2.00;100.00
25438;DHT22;13364;49.084;9.978;2024-01-07T15:09:38;-2.00;100.00
25438;DHT22;13364;49.084;9.978;2024-01-07T15:12:06;-2.00;100.00
25438;DHT22;13364;49.084;9.978;2024-01-07T15:14:33;-2.00;100.00
25438;DHT22;13364;49.084;9.978;2024-01-07T15:17:00;-1.90;100.00
25438;DHT22;13364;49.084;9.978;2024-01-07T15:19:27;-1.90;100.00
25438;DHT22;13364;49.084;9.978;2024-01-07T15:21:54;-2.00;100.00
25438;DHT22;13364;49.084;9.978;2024-01-07T15:24:21;-2.00;100.00
25438;DHT22;13364;49.084;9.978;2024-01-07T15:26:48;-2.00;100.00
25438;DHT22;13364;49.084;9.978;2024-01-07T15:29:15;-2.00;100.00
25438;DHT22;13364;49.084;9.978;2024-01-07T15:31:42;-2.10;100.00
25438;DHT22;13364;49.084;9.978;2024-01-07T15:34:09;-2.10;100.00
25438;DHT22;13364;49.084;9.978;2024-01-07T15:36:36;-2.10;100.00
25438;DHT22;13364;49.084;9.978;2024-01-07T15:39:04;-2.10;100.00
25438;DHT22;13364;49.084;9.978;2024-01-07T15:41:31;-2.10;100.00
25438;DHT22;13364;49.084;9.978;2024-01-07T15:43:58;-2.20;100.00
25438;DHT22;13364;49.084;9.978;2024-01-07T15:46:25;-2.20;100.00
25438;DHT22;13364;49.084;9.978;2024-01-07T15:48:52;-2.20;100.00
25438;DHT22;13364;49.084;9.978;2024-01-07T15:51:21;-2.20;100.00
25438;DHT22;13364;49.084;9.978;2024-01-07T15:53:47;-2.20;100.00
25438;DHT22;13364;49.084;9.978;2024-01-07T15:56:14;-2.10;100.00
25438;DHT22;13364;49.084;9.978;2024-01-07T15:58:42;-2.10;100.00
25438;DHT22;13364;49.084;9.978;2024-01-07T16:01:09;-2.10;100.00
25438;DHT22;13364;49.084;9.978;2024-01-07T16:03:36;-2.10;100.00
25438;DHT22;13364;49.084;9.978;2024-01-07T16:06:03;-2.20;100.00
25438;DHT22;13364;49.084;9.978;2024-01-07T16:08:30;-2.20;100.00
25438;DHT22;13364;49.084;9.978;2024-01-07T16:10:58;-2.30;100.00
25438;DHT22;13364;49.084;9.978;2024-01-07T16:13:25;-2.30;100.00
25438;DHT22;13364;49.084;9.978;2024-01-07T16:15:52;-2.40;100.00
25438;DHT22;13364;49.084;9.978;2024-01-07T16:18:22;-2.50;100.00
25438;DHT22;13364;49.084;9.978;2024-01-07T16:20:49;-2.50;100.00
25438;DHT22;13364;49.084;9.978;2024-01-07T16:23:16;-2.60;100.00
25438;DHT22;13364;49.084;9.978;2024-01-07T16:25:43;-2.60;100.00
25438;DHT22;13364;49.084;9.978;2024-01-07T16:28:09;-2.60;100.00
25438;DHT22;13364;49.084;9.978;2024-01-07T16:30:38;-2.70;100.00
25438;DHT22;13364;49.084;9.978;2024-01-07T16:33:05;-2.70;100.00
25438;DHT22;13364;49.084;9.978;2024-01-07T16:35:35;-2.70;100.00
25438;DHT22;13364;49.084;9.978;2024-01-07T16:38:06;-2.70;100.00
25438;DHT22;13364;49.084;9.978;2024-01-07T16:40:34;-2.70;100.00
25438;DHT22;13364;49.084;9.978;2024-01-07T16:43:01;-2.70;100.00
25438;DHT22;13364;49.084;9.978;2024-01-07T16:45:29;-2.70;100.00
25438;DHT22;13364;49.084;9.978;2024-01-07T16:47:56;-2.70;100.00
25438;DHT22;13364;49.084;9.978;2024-01-07T16:50:23;-2.70;100.00
25438;DHT22;13364;49.084;9.978;2024-01-07T16:52:53;-2.70;100.00
25438;DHT22;13364;49.084;9.978;2024-01-07T16:55:20;-2.70;100.00
25438;DHT22;13364;49.084;9.978;2024-01-07T16:57:47;-2.80;100.00
25438;DHT22;13364;49.084;9.978;2024-01-07T17:00:14;-2.70;100.00
25438;DHT22;13364;49.084;9.978;2024-01-07T17:02:46;-2.80;100.00
25438;DHT22;13364;49.084;9.978;2024-01-07T17:05:13;-2.70;100.00
25438;DHT22;13364;49.084;9.978;2024-01-07T17:07:41;-2.80;100.00
25438;DHT22;13364;49.084;9.978;2024-01-07T17:10:08;-2.70;100.00
25438;DHT22;13364;49.084;9.978;2024-01-07T17:12:35;-2.70;100.00
25438;DHT22;13364;49.084;9.978;2024-01-07T17:15:02;-2.70;100.00
25438;DHT22;13364;49.084;9.978;2024-01-07T17:17:29;-2.70;100.00
25438;DHT22;13364;49.084;9.978;2024-01-07T17:19:57;-2.70;100.00
25438;DHT22;13364;49.084;9.978;2024-01-07T17:22:23;-2.80;100.00
25438;DHT22;13364;49.084;9.978;2024-01-07T17:24:50;-2.70;100.00
25438;DHT22;13364;49.084;9.978;2024-01-07T17:27:17;-2.70;100.00
25438;DHT22;13364;49.084;9.978;2024-01-07T17:29:44;-2.70;100.00
25438;DHT22;13364;49.084;9.978;2024-01-07T17:32:10;-2.70;100.00
25438;DHT22;13364;49.084;9.978;2024-01-07T17:34:38;-2.70;100.00
25438;DHT22;13364;49.084;9.978;2024-01-07T17:37:05;-2.70;100.00
25438;DHT22;13364;49.084;9.978;2024-01-07T17:39:32;-2.80;100.00
25438;DHT22;13364;49.084;9.978;2024-01-07T17:42:00;-2.80;100.00
25438;DHT22;13364;49.084;9.978;2024-01-07T17:44:31;-2.90;100.00
25438;DHT22;13364;49.084;9.978;2024-01-07T17:46:58;-3.00;100.00
25438;DHT22;13364;49.084;9.978;2024-01-07T17:49:24;-3.00;100.00
25438;DHT22;13364;49.084;9.978;2024-01-07T17:51:51;-3.10;100.00
25438;DHT22;13364;49.084;9.978;2024-01-07T17:54:18;-3.20;100.00
25438;DHT22;13364;49.084;9.978;2024-01-07T17:56:45;-3.20;100.00
25438;DHT22;13364;49.084;9.978;2024-01-07T17:59:12;-3.30;100.00
25438;DHT22;13364;49.084;9.978;2024-01-07T18:01:39;-3.30;100.00
25438;DHT22;13364;49.084;9.978;2024-01-07T18:04:06;-3.20;100.00
25438;DHT22;13364;49.084;9.978;2024-01-07T18:06:33;-3.30;100.00
25438;DHT22;13364;49.084;9.978;2024-01-07T18:09:00;-3.30;100.00
25438;DHT22;13364;49.084;9.978;2024-01-07T18:11:27;-3.30;100.00
25438;DHT22;13364;49.084;9.978;2024-01-07T18:13:54;-3.30;100.00
25438;DHT22;13364;49.084;9.978;2024-01-07T18:16:22;-3.30;100.00
25438;DHT22;13364;49.084;9.978;2024-01-07T18:18:49;-3.30;100.00
25438;DHT22;13364;49.084;9.978;2024-01-07T18:21:16;-3.30;100.00
25438;DHT22;13364;49.084;9.978;2024-01-07T18:23:43;-3.40;100.00
25438;DHT22;13364;49.084;9.978;2024-01-07T18:26:10;-3.40;100.00
25438;DHT22;13364;49.084;9.978;2024-01-07T18:28:37;-3.40;100.00
25438;DHT22;13364;49.084;9.978;2024-01-07T18:31:04;-3.40;100.00
25438;DHT22;13364;49.084;9.978;2024-01-07T18:33:31;-3.50;100.00
25438;DHT22;13364;49.084;9.978;2024-01-07T18:35:58;-3.50;100.00
25438;DHT22;13364;49.084;9.978;2024-01-07T18:38:26;-3.50;100.00
25438;DHT22;13364;49.084;9.978;2024-01-07T18:40:53;-3.50;100.00
25438;DHT22;13364;49.084;9.978;2024-01-07T18:43:20;-3.50;100.00
25438;DHT22;13364;49.084;9.978;2024-01-07T18:45:47;-3.50;100.00
25438;DHT22;13364;49.084;9.978;2024-01-07T18:48:14;-3.50;100.00
25438;DHT22;13364;49.084;9.978;2024-01-07T18:50:42;-3.50;100.00
25438;DHT22;13364;49.084;9.978;2024-01-07T18:53:09;-3.40;100.00
25438;DHT22;13364;49.084;9.978;2024-01-07T18:55:36;-3.40;100.00
25438;DHT22;13364;49.084;9.978;2024-01-07T18:58:06;-3.40;100.00
25438;DHT22;13364;49.084;9.978;2024-01-07T19:00:36;-3.40;100.00
25438;DHT22;13364;49.084;9.978;2024-01-07T19:03:04;-3.40;100.00
25438;DHT22;13364;49.084;9.978;2024-01-07T19:05:31;-3.50;100.00
25438;DHT22;13364;49.084;9.978;2024-01-07T19:07:58;-3.50;100.00
25438;DHT22;13364;49.084;9.978;2024-01-07T19:10:26;-3.50;100.00
25438;DHT22;13364;49.084;9.978;2024-01-07T19:12:53;-3.50;100.00
25438;DHT22;13364;49.084;9.978;2024-01-07T19:15:19;-3.60;100.00
25438;DHT22;13364;49.084;9.978;2024-01-07T19:17:51;-3.60;100.00
25438;DHT22;13364;49.084;9.978;2024-01-07T19:20:18;-3.70;100.00
25438;DHT22;13364;49.084;9.978;2024-01-07T19:22:45;-3.80;100.00
25438;DHT22;13364;49.084;9.978;2024-01-07T19:25:12;-3.80;100.00
25438;DHT22;13364;49.084;9.978;2024-01-07T19:27:39;-3.90;100.00
25438;DHT22;13364;49.084;9.978;2024-01-07T19:30:07;-3.90;100.00
25438;DHT22;13364;49.084;9.978;2024-01-07T19:32:34;-3.90;100.00
25438;DHT22;13364;49.084;9.978;2024-01-07T19:35:01;-4.00;100.00
25438;DHT22;13364;49.084;9.978;2024-01-07T19:37:28;-4.00;100.00
25438;DHT22;13364;49.084;9.978;2024-01-07T19:39:55;-4.00;100.00
25438;DHT22;13364;49.084;9.978;2024-01-07T19:42:23;-4.10;100.00
25438;DHT22;13364;49.084;9.978;2024-01-07T19:44:50;-4.10;100.00
25438;DHT22;13364;49.084;9.978;2024-01-07T19:47:17;-4.20;100.00
25438;DHT22;13364;49.084;9.978;2024-01-07T19:49:44;-4.20;100.00
25438;DHT22;13364;49.084;9.978;2024-01-07T19:52:11;-4.10;100.00
25438;DHT22;13364;49.084;9.978;2024-01-07T19:54:38;-4.10;100.00
25438;DHT22;13364;49.084;9.978;2024-01-07T19:57:05;-4.10;100.00
25438;DHT22;13364;49.084;9.978;2024-01-07T19:59:32;-4.20;100.00
25438;DHT22;13364;49.084;9.978;2024-01-07T20:02:06;-4.30;100.00
25438;DHT22;13364;49.084;9.978;2024-01-07T20:04:33;-4.30;100.00
25438;DHT22;13364;49.084;9.978;2024-01-07T20:07:00;-4.30;100.00
25438;DHT22;13364;49.084;9.978;2024-01-07T20:09:29;-4.30;100.00
25438;DHT22;13364;49.084;9.978;2024-01-07T20:11:56;-4.30;100.00
25438;DHT22;13364;49.084;9.978;2024-01-07T20:14:23;-4.30;100.00
25438;DHT22;13364;49.084;9.978;2024-01-07T20:16:52;-4.30;100.00
25438;DHT22;13364;49.084;9.978;2024-01-07T20:19:19;-4.30;100.00
25438;DHT22;13364;49.084;9.978;2024-01-07T20:21:47;-4.30;100.00
25438;DHT22;13364;49.084;9.978;2024-01-07T20:24:15;-4.30;100.00
25438;DHT22;13364;49.084;9.978;2024-01-07T20:26:42;-4.30;100.00
25438;DHT22;13364;49.084;9.978;2024-01-07T20:29:09;-4.30;100.00
25438;DHT22;13364;49.084;9.978;2024-01-07T20:31:38;-4.30;100.00
25438;DHT22;13364;49.084;9.978;2024-01-07T20:34:05;-4.30;100.00
25438;DHT22;13364;49.084;9.978;2024-01-07T20:36:34;-4.30;100.00
25438;DHT22;13364;49.084;9.978;2024-01-07T20:39:00;-4.20;100.00
25438;DHT22;13364;49.084;9.978;2024-01-07T20:41:27;-4.30;100.00
25438;DHT22;13364;49.084;9.978;2024-01-07T20:43:55;-4.30;100.00
25438;DHT22;13364;49.084;9.978;2024-01-07T20:46:22;-4.30;100.00
25438;DHT22;13364;49.084;9.978;2024-01-07T20:48:49;-4.30;100.00
25438;DHT22;13364;49.084;9.978;2024-01-07T20:51:16;-4.20;100.00
25438;DHT22;13364;49.084;9.978;2024-01-07T20:53:43;-4.20;100.00
25438;DHT22;13364;49.084;9.978;2024-01-07T20:56:10;-4.20;100.00
25438;DHT22;13364;49.084;9.978;2024-01-07T20:58:37;-4.20;100.00
25438;DHT22;13364;49.084;9.978;2024-01-07T21:01:04;-4.20;100.00
25438;DHT22;13364;49.084;9.978;2024-01-07T21:03:31;-4.20;100.00
25438;DHT22;13364;49.084;9.978;2024-01-07T21:05:58;-4.10;100.00
25438;DHT22;13364;49.084;9.978;2024-01-07T21:08:27;-4.10;100.00
25438;DHT22;13364;49.084;9.978;2024-01-07T21:10:55;-4.10;100.00
25438;DHT22;13364;49.084;9.978;2024-01-07T21:13:24;-4.20;100.00
25438;DHT22;13364;49.084;9.978;2024-01-07T21:15:51;-4.20;100.00
25438;DHT22;13364;49.084;9.978;2024-01-07T21:18:18;-4.20;100.00
25438;DHT22;13364;49.084;9.978;2024-01-07T21:20:45;-4.20;100.00
25438;DHT22;13364;49.084;9.978;2024-01-07T21:23:14;-4.20;100.00
25438;DHT22;13364;49.084;9.978;2024-01-07T21:25:45;-4.20;100.00
25438;DHT22;13364;49.084;9.978;2024-01-07T21:28:13;-4.20;100.00
25438;DHT22;13364;49.084;9.978;2024-01-07T21:30:40;-4.20;100.00
25438;DHT22;13364;49.084;9.978;2024-01-07T21:33:07;-4.20;100.00
25438;DHT22;13364;49.084;9.978;2024-01-07T21:35:34;-4.20;100.00
25438;DHT22;13364;49.084;9.978;2024-01-07T21:38:01;-4.10;100.00
25438;DHT22;13364;49.084;9.978;2024-01-07T21:40:28;-4.10;100.00
25438;DHT22;13364;49.084;9.978;2024-01-07T21:42:56;-4.10;100.00
25438;DHT22;13364;49.084;9.978;2024-01-07T21:45:23;-4.10;100.00
25438;DHT22;13364;49.084;9.978;2024-01-07T21:47:51;-4.10;100.00
25438;DHT22;13364;49.084;9.978;2024-01-07T21:50:18;-4.10;100.00
25438;DHT22;13364;49.084;9.978;2024-01-07T21:52:53;-4.10;100.00
25438;DHT22;13364;49.084;9.978;2024-01-07T21:55:21;-4.10;100.00
25438;DHT22;13364;49.084;9.978;2024-01-07T21:57:47;-4.10;100.00
25438;DHT22;13364;49.084;9.978;2024-01-07T22:00:15;-4.00;100.00